createdAt,value
2023-05-11T00:01:32.369Z,4.79
2023-05-11T00:06:40.874Z,4.79
2023-05-11T00:11:49.353Z,4.89
2023-05-11T00:16:58.469Z,4.89
2023-05-11T00:22:06.310Z,4.83
2023-05-11T00:27:14.760Z,4.83
2023-05-11T00:32:24.063Z,4.85
2023-05-11T00:37:32.378Z,4.99
2023-05-11T00:42:42.212Z,4.99
2023-05-11T00:47:50.948Z,4.98
2023-05-11T00:52:59.745Z,4.98
2023-05-11T00:58:08.218Z,4.85
2023-05-11T01:03:16.987Z,4.85
2023-05-11T01:08:26.518Z,4.91
2023-05-11T01:13:36.136Z,4.91
2023-05-11T01:18:43.734Z,4.88
2023-05-11T01:23:53.165Z,4.88
2023-05-11T01:29:01.650Z,4.92
2023-05-11T01:34:10.189Z,4.92
2023-05-11T01:39:19.893Z,4.97
2023-05-11T01:44:28.372Z,4.97
2023-05-11T01:49:38.128Z,4.88
2023-05-11T01:54:45.981Z,4.88
2023-05-11T01:59:55.715Z,4.9
2023-05-11T02:46:21.266Z,4.95
2023-05-11T02:51:30.238Z,4.95
2023-05-11T02:56:39.898Z,4.95
2023-05-11T03:01:50.394Z,4.97
2023-05-11T03:06:58.124Z,4.97
2023-05-11T03:12:06.622Z,5.01
2023-05-11T03:27:34.104Z,5
2023-05-11T03:32:42.831Z,5
2023-05-11T03:37:50.925Z,5
2023-05-11T03:43:01.332Z,5
2023-05-11T03:48:11.159Z,4.93
2023-05-11T03:53:20.910Z,4.93
2023-05-11T03:58:29.349Z,5.01
2023-05-11T04:03:39.791Z,5.01
2023-05-11T04:08:48.243Z,4.97
2023-05-11T04:13:56.677Z,4.97
2023-05-11T04:19:05.476Z,4.99
2023-05-11T04:24:14.282Z,4.99
2023-05-11T04:29:22.807Z,4.96
2023-05-11T04:34:32.641Z,4.96
2023-05-11T04:39:42.328Z,5.05
2023-05-11T04:44:52.043Z,5.05
2023-05-11T04:50:01.796Z,5.05
2023-05-11T04:55:11.564Z,5.05
2023-05-11T05:00:22.728Z,5.06
2023-05-11T05:05:30.474Z,5.06
2023-05-11T05:10:38.914Z,5.06
2023-05-11T05:15:48.684Z,5.06
2023-05-11T05:20:58.462Z,5.13
2023-05-11T05:26:06.980Z,5.13
2023-05-11T05:31:17.084Z,5.13
2023-05-11T05:36:25.165Z,5.13
2023-05-11T05:41:33.659Z,5.2
2023-05-11T05:46:42.477Z,5.2
2023-05-11T05:51:51.900Z,5.24
2023-05-11T05:57:01.041Z,5.24
2023-05-11T06:02:10.394Z,5.32
2023-05-11T06:07:18.662Z,5.32
2023-05-11T06:58:54.379Z,5.17
2023-05-11T07:04:02.850Z,5.17
2023-05-11T07:09:12.671Z,5.15
2023-05-11T07:14:22.282Z,5.15
2023-05-11T07:19:31.440Z,5.13
2023-05-11T07:24:41.833Z,5.13
2023-05-11T07:29:50.958Z,5.15
2023-05-11T07:34:59.445Z,5.15
2023-05-11T07:40:09.217Z,5.15
2023-05-11T07:45:18.309Z,5.15
2023-05-11T07:50:28.119Z,5.2
2023-05-11T07:55:34.629Z,5.2
2023-05-11T08:00:43.209Z,5.19
2023-05-11T08:05:53.177Z,5.19
2023-05-11T08:11:01.336Z,5.16
2023-05-11T08:16:11.303Z,5.16
2023-05-11T08:21:20.868Z,5.17
2023-05-11T08:26:29.322Z,5.17
2023-05-11T08:31:39.216Z,5.18
2023-05-11T08:36:48.874Z,5.18
2023-05-11T08:41:58.625Z,5.17
2023-05-11T08:47:24.268Z,5.17
2023-05-11T08:52:16.892Z,5.24
2023-05-11T08:57:25.361Z,5.24
2023-05-11T09:02:35.310Z,5.14
2023-05-11T09:07:43.598Z,5.14
2023-05-11T09:12:52.722Z,4.83
2023-05-11T09:18:01.351Z,4.83
2023-05-11T09:23:10.933Z,4.72
2023-05-11T09:28:26.900Z,4.72
2023-05-11T10:09:33.176Z,4.95
2023-05-11T10:14:42.220Z,5.04
2023-05-11T10:19:51.990Z,4.98
2023-05-11T10:25:01.091Z,4.98
2023-05-11T10:30:10.378Z,4.89
2023-05-11T10:35:19.258Z,4.89
2023-05-11T10:40:29.044Z,4.87
2023-05-11T10:45:37.654Z,4.87
2023-05-11T10:50:46.104Z,4.74
2023-05-11T10:55:56.384Z,4.74
2023-05-11T11:01:06.031Z,4.86
2023-05-11T11:06:14.710Z,4.86
2023-05-11T11:11:23.139Z,4.8
2023-05-11T11:16:32.551Z,4.8
2023-05-11T11:21:42.040Z,4.94
2023-05-11T11:26:51.747Z,4.94
2023-05-11T11:32:01.503Z,4.83
2023-05-11T11:37:10.208Z,4.83
2023-05-11T11:42:19.743Z,4.77
2023-05-11T11:47:30.278Z,4.77
2023-05-11T11:52:38.611Z,4.65
2023-05-11T11:57:49.679Z,4.65
2023-05-11T12:02:59.038Z,4.72
2023-05-11T12:08:09.814Z,4.72
2023-05-11T12:13:19.592Z,4.91
2023-05-11T12:18:29.461Z,4.91
2023-05-11T12:23:39.754Z,4.93
2023-05-11T12:25:40.078Z,4.93
2023-05-11T12:30:48.655Z,4.81
2023-05-11T12:35:58.943Z,4.81
2023-05-11T12:41:09.950Z,4.77
2023-05-11T12:46:18.134Z,4.77
2023-05-11T12:51:27.626Z,4.83
2023-05-11T12:56:36.707Z,4.83
2023-05-11T13:01:45.353Z,5.07
2023-05-11T13:06:55.588Z,5.07
2023-05-11T13:12:04.080Z,4.64
2023-05-11T13:17:31.746Z,4.64
2023-05-11T13:22:40.218Z,4.74
2023-05-11T13:27:49.973Z,4.74
2023-05-11T13:33:00.083Z,4.71
2023-05-11T13:38:13.996Z,4.71
2023-05-11T13:43:23.755Z,4.61
2023-05-11T13:48:34.142Z,4.61
2023-05-11T13:53:43.256Z,4.6
2023-05-11T13:58:53.688Z,4.6
2023-05-11T14:04:07.470Z,4.54
2023-05-11T14:09:16.580Z,4.54
2023-05-11T14:14:26.148Z,4.51
2023-05-11T14:19:35.636Z,4.51
2023-05-11T15:21:45.918Z,4.52
2023-05-11T15:26:55.674Z,4.52
2023-05-11T15:32:06.014Z,4.47
2023-05-11T15:37:15.786Z,4.47
2023-05-11T15:42:25.516Z,4.46
2023-05-11T15:47:38.239Z,4.46
2023-05-11T15:52:47.652Z,4.41
2023-05-11T15:57:55.428Z,4.41
2023-05-11T16:03:30.188Z,4.4
2023-05-11T16:08:43.726Z,4.4
2023-05-11T16:13:53.512Z,4.41
2023-05-11T16:19:03.056Z,4.41
2023-05-11T16:24:15.809Z,4.39
2023-05-11T16:29:24.708Z,4.39
2023-05-11T16:34:33.165Z,4.41
2023-05-11T16:39:42.533Z,4.41
2023-05-11T16:44:50.816Z,4.38
2023-05-11T16:49:59.890Z,4.38
2023-05-11T16:55:09.770Z,4.3
2023-05-11T17:00:20.385Z,4.3
2023-05-11T17:05:27.273Z,4.32
2023-05-11T17:10:36.366Z,4.32
2023-05-11T17:15:46.153Z,4.22
2023-05-11T17:20:55.927Z,4.22
2023-05-11T17:26:04.388Z,4.21
2023-05-11T17:31:13.645Z,4.21
2023-05-11T17:36:23.910Z,4.18
2023-05-11T17:41:34.969Z,4.2
2023-05-11T17:46:43.545Z,4.2
2023-05-11T17:51:51.275Z,4.21
2023-05-11T17:57:01.674Z,4.21
2023-05-11T18:02:11.365Z,4.1
2023-05-11T18:07:19.286Z,4.1
2023-05-11T18:12:30.304Z,4.12
2023-05-11T18:17:38.915Z,4.12
2023-05-11T18:53:42.295Z,4.29
2023-05-11T18:58:50.489Z,4.29
2023-05-11T19:03:59.572Z,4.26
2023-05-11T19:09:07.440Z,4.26
2023-05-11T19:14:16.562Z,4.25
2023-05-11T19:19:25.005Z,4.25
2023-05-11T19:24:33.508Z,4.3
2023-05-11T19:29:44.004Z,4.3
2023-05-11T19:34:53.685Z,4.4
2023-05-11T19:40:47.131Z,4.4
2023-05-11T19:45:12.550Z,4.47
2023-05-11T19:50:26.202Z,4.47
2023-05-11T19:55:30.792Z,4.39
2023-05-11T20:00:39.968Z,4.39
2023-05-11T20:05:49.649Z,4.45
2023-05-11T20:10:58.144Z,4.45
2023-05-11T20:16:07.495Z,4.52
2023-05-11T20:21:16.413Z,4.52
2023-05-11T20:26:25.494Z,4.48
2023-05-11T20:31:34.390Z,4.48
2023-05-11T20:36:45.890Z,4.58
2023-05-11T20:41:55.616Z,4.58
2023-05-11T20:47:03.934Z,4.55
2023-05-11T20:52:13.022Z,4.55
2023-05-11T20:57:24.699Z,4.59
2023-05-11T21:02:35.122Z,4.55
2023-05-11T21:07:42.951Z,4.55
2023-05-11T21:12:53.371Z,4.58
2023-05-11T21:18:02.862Z,4.58
2023-05-11T21:23:12.229Z,4.57
2023-05-11T21:28:20.678Z,4.57
2023-05-11T22:09:33.729Z,4.64
2023-05-11T22:14:43.522Z,4.56
2023-05-11T22:19:51.930Z,4.56
2023-05-11T22:25:01.177Z,4.53
2023-05-11T22:30:10.786Z,4.53
2023-05-11T22:35:19.516Z,4.46
2023-05-11T22:40:27.743Z,4.46
2023-05-11T22:45:37.751Z,4.37
2023-05-11T22:50:45.995Z,4.37
2023-05-11T22:55:55.740Z,4.29
2023-05-11T23:01:06.337Z,4.29
2023-05-11T23:06:14.718Z,4.34
2023-05-11T23:11:23.715Z,4.34
2023-05-11T23:16:32.876Z,4.59
2023-05-11T23:21:41.386Z,4.59
2023-05-11T23:26:50.457Z,4.64
2023-05-11T23:31:58.955Z,4.64
2023-05-11T23:37:08.742Z,4.66
2023-05-11T23:42:18.514Z,4.66
2023-05-11T23:47:28.808Z,4.62
2023-05-11T23:52:36.782Z,4.62
2023-05-11T23:57:45.855Z,4.69
